Time;durP1;ratioP1;P1;durP2;ratioP2;P2;SDS_P1;SDS_P2;PMS_P1;PMS_P2;Temp;Humidity;BMP_temperature;BMP_pressure;BME280_temperature;BME280_humidity;BME280_pressure;Samples;Min_cycle;Max_cycle;Signal;HPM_P1;HPM_P2
2022/11/28 00:00:53;;;;;;;67.22;42.72;;;;;;;29.24;73.69;100919.66;5095020;27;69177;-32
2022/11/28 00:03:25;;;;;;;87.30;52.47;;;;;;;29.27;73.99;100924.63;5090718;27;65279;-32
2022/11/28 00:05:56;;;;;;;82.78;52.00;;;;;;;29.31;74.84;100934.00;5086237;27;69198;-32
2022/11/28 00:08:28;;;;;;;83.90;53.37;;;;;;;29.33;75.53;100939.19;5093575;27;65293;-33
2022/11/28 00:11:03;;;;;;;58.53;31.33;;;;;;;29.34;75.35;100936.28;5089552;27;69243;-34
2022/11/28 00:13:35;;;;;;;21.77;13.02;;;;;;;29.30;75.92;100932.31;5086550;27;66423;-33
2022/11/28 00:16:08;;;;;;;10.98;9.40;;;;;;;28.77;75.94;100861.22;5084767;27;70014;-33
2022/11/28 00:18:40;;;;;;;26.52;12.70;;;;;;;29.35;76.47;100954.16;5086894;27;66184;-34
2022/11/28 00:21:13;;;;;;;18.52;13.65;;;;;;;29.32;76.41;100935.66;5086260;27;70466;-33
2022/11/28 00:23:46;;;;;;;21.58;12.52;;;;;;;28.91;76.19;100876.41;5086484;27;65098;-34
2022/11/28 00:26:32;;;;;;;19.58;13.90;;;;;;;29.32;76.19;100943.75;5084561;27;69671;-33
2022/11/28 00:29:05;;;;;;;37.00;25.77;;;;;;;29.47;75.70;100958.91;5086045;27;66157;-34
2022/11/28 00:31:41;;;;;;;40.53;27.73;;;;;;;29.44;75.68;100964.75;5087160;27;70534;-34
2022/11/28 00:34:14;;;;;;;42.13;26.50;;;;;;;29.40;75.85;100940.84;5083298;27;66002;-38
2022/11/28 00:36:46;;;;;;;38.28;24.95;;;;;;;29.54;75.94;100968.69;5085205;27;70151;-34
2022/11/28 00:39:18;;;;;;;23.83;19.48;;;;;;;29.58;76.16;100977.22;5084344;27;66052;-33
2022/11/28 00:41:49;;;;;;;25.40;17.38;;;;;;;29.60;73.74;100975.13;5080048;27;69286;-34
2022/11/28 00:44:21;;;;;;;15.57;14.47;;;;;;;29.52;72.67;100953.72;5083544;27;65229;-34
2022/11/28 00:46:52;;;;;;;15.55;14.15;;;;;;;29.69;72.27;100983.88;5088228;27;70855;-34
2022/11/28 00:49:24;;;;;;;15.05;13.55;;;;;;;29.73;72.40;100987.84;5084459;27;65064;-33
2022/11/28 00:51:55;;;;;;;13.73;12.63;;;;;;;29.64;72.25;100968.28;5089003;27;70127;-35
2022/11/28 00:54:27;;;;;;;12.95;11.65;;;;;;;29.49;71.43;100937.94;5091415;27;66257;-35
2022/11/28 00:56:58;;;;;;;11.93;11.13;;;;;;;29.44;71.83;100935.03;5085863;27;69276;-34
2022/11/28 00:59:29;;;;;;;11.97;11.00;;;;;;;29.87;71.51;100991.38;5086368;27;66049;-35
2022/11/28 01:02:01;;;;;;;12.75;11.63;;;;;;;29.90;71.13;100999.06;5088071;27;70029;-34
2022/11/28 01:04:32;;;;;;;12.15;11.25;;;;;;;29.51;71.73;100938.56;5089791;27;66484;-34
2022/11/28 01:07:04;;;;;;;11.35;10.55;;;;;;;29.94;71.32;101013.81;5088264;27;70069;-33
2022/11/28 01:09:35;;;;;;;13.00;11.07;;;;;;;29.94;71.26;101011.91;5097424;27;66652;-34
2022/11/28 01:12:06;;;;;;;11.00;10.30;;;;;;;29.98;71.02;101017.75;5087807;27;70019;-34
2022/11/28 01:14:38;;;;;;;10.93;10.02;;;;;;;29.65;70.90;100963.72;5088232;27;65987;-34
2022/11/28 01:17:10;;;;;;;10.77;9.90;;;;;;;29.98;70.79;101012.34;5087309;27;69284;-34
2022/11/28 01:19:42;;;;;;;10.65;9.77;;;;;;;30.04;71.15;101028.56;5087173;27;66050;-34
2022/11/28 01:22:13;;;;;;;11.07;10.05;;;;;;;30.04;70.55;101023.16;5084326;27;69823;-35
2022/11/28 01:24:45;;;;;;;10.07;9.18;;;;;;;30.08;71.06;101028.13;5084447;27;66614;-35
2022/11/28 01:27:16;;;;;;;10.35;9.70;;;;;;;29.97;70.76;101021.50;5085195;27;69138;-34
2022/11/28 01:29:47;;;;;;;9.43;8.82;;;;;;;30.12;70.65;101032.09;5087375;27;66173;-34
2022/11/28 01:32:19;;;;;;;9.45;8.88;;;;;;;30.13;70.34;101031.88;5090976;27;70743;-34
2022/11/28 01:34:50;;;;;;;9.77;9.27;;;;;;;30.13;70.26;101037.28;5087822;27;65333;-34
2022/11/28 01:37:22;;;;;;;10.18;9.27;;;;;;;30.12;70.63;101027.50;5083278;27;69912;-35
2022/11/28 01:39:53;;;;;;;9.20;8.60;;;;;;;30.19;70.08;101041.84;5095335;27;65993;-34
2022/11/28 01:42:24;;;;;;;8.90;8.40;;;;;;;30.21;70.32;101039.75;5083676;27;70192;-34
2022/11/28 01:45:07;;;;;;;8.82;7.85;;;;;;;30.22;70.63;101041.44;5082140;27;66282;-34
2022/11/28 01:47:38;;;;;;;;;;;;;;;29.92;71.26;101035.66;5093454;27;70158;-33
2022/11/28 01:50:10;;;;;;;8.38;7.78;;;;;;;30.24;70.48;101039.38;5086135;27;67111;-34
2022/11/28 01:52:45;;;;;;;8.57;7.93;;;;;;;30.01;69.98;100990.28;5087278;27;70827;-34
2022/11/28 01:55:20;;;;;;;8.70;8.10;;;;;;;30.34;69.68;101046.19;5098286;27;65904;-34
2022/11/28 01:57:54;;;;;;;7.82;7.32;;;;;;;30.32;70.11;101019.38;5080596;27;69735;-36
2022/11/28 02:00:25;;;;;;;8.80;8.10;;;;;;;30.34;69.56;101030.81;5066295;27;66732;-35
2022/11/28 02:03:29;;;;;;;10.35;7.75;;;;;;;30.25;69.99;101024.78;5088052;27;69857;-36
2022/11/28 02:06:01;;;;;;;7.63;7.10;;;;;;;30.37;69.73;101029.53;5079458;27;66547;-34
2022/11/28 02:08:34;;;;;;;7.53;6.82;;;;;;;30.39;69.42;101030.16;5084842;27;69717;-35
2022/11/28 02:11:14;;;;;;;7.45;6.80;;;;;;;30.43;69.91;101031.41;5091336;27;65518;-37
2022/11/28 02:14:10;;;;;;;7.88;7.07;;;;;;;30.39;69.76;101025.56;5087742;27;69955;-35
2022/11/28 02:17:13;;;;;;;7.28;6.68;;;;;;;30.33;70.17;101021.00;5085692;27;65468;-38
2022/11/28 02:20:01;;;;;;;6.95;6.47;;;;;;;30.46;69.31;101026.38;5082169;27;70299;-34
2022/11/28 02:22:38;;;;;;;7.07;6.47;;;;;;;30.51;69.74;101017.63;5084469;27;66995;-35
2022/11/28 02:25:30;;;;;;;7.97;6.15;;;;;;;30.39;69.52;101022.84;5086465;27;70132;-36
2022/11/28 02:28:28;;;;;;;7.03;6.32;;;;;;;30.45;69.71;101019.31;5051411;27;66449;-34
2022/11/28 02:31:21;;;;;;;6.70;6.20;;;;;;;30.47;69.20;101027.22;5085728;27;70542;-34
2022/11/28 02:34:09;;;;;;;7.05;6.35;;;;;;;30.01;69.29;100925.38;5084207;27;65700;-35
2022/11/28 02:37:10;;;;;;;8.70;6.13;;;;;;;30.48;69.18;101007.25;5080541;27;69594;-34
2022/11/28 02:39:55;;;;;;;9.48;6.00;;;;;;;30.63;68.67;101015.91;5083016;27;65627;-35
2022/11/28 02:43:04;;;;;;;6.15;5.55;;;;;;;30.49;68.99;101006.19;5084185;27;70195;-33
2022/11/28 02:46:03;;;;;;;5.75;5.40;;;;;;;30.67;68.34;101011.72;5006111;28;66451;-35
2022/11/28 02:48:43;;;;;;;5.85;5.45;;;;;;;30.30;68.80;100940.25;5012986;28;68418;-35
2022/11/28 02:51:36;;;;;;;6.05;5.50;;;;;;;30.64;68.80;101001.31;5068630;27;65439;-34
2022/11/28 02:54:11;;;;;;;5.88;5.47;;;;;;;30.75;68.67;101009.81;5086103;27;69600;-35
2022/11/28 02:56:51;;;;;;;5.75;5.30;;;;;;;30.67;68.33;100998.19;5085386;27;65423;-34
2022/11/28 02:59:37;;;;;;;5.93;5.28;;;;;;;30.81;67.98;101004.38;5082901;27;69533;-34
2022/11/28 03:02:31;;;;;;;5.43;4.93;;;;;;;30.72;68.07;101011.06;5082144;27;65799;-34
2022/11/28 03:06:04;;;;;;;5.47;5.03;;;;;;;30.70;68.37;101005.88;5079571;27;70603;-37
2022/11/28 03:08:38;;;;;;;;;;;;;;;30.53;69.12;100996.56;5052183;27;67069;-34
2022/11/28 03:12:02;;;;;;;5.60;5.07;;;;;;;30.70;68.58;100991.50;5086602;27;70664;-34
2022/11/28 03:14:45;;;;;;;5.20;4.75;;;;;;;30.90;68.04;100999.56;5016978;28;66702;-34
2022/11/28 03:17:34;;;;;;;14.55;5.05;;;;;;;30.87;68.21;100989.97;5080947;27;69608;-35
2022/11/28 03:20:22;;;;;;;9.60;4.55;;;;;;;30.96;67.57;100987.84;5085090;27;66007;-33
2022/11/28 03:23:24;;;;;;;6.53;4.72;;;;;;;30.90;68.05;100994.97;5082172;27;70910;-33
2022/11/28 03:26:12;;;;;;;4.85;4.00;;;;;;;31.00;67.73;100990.94;5083193;27;66103;-34
2022/11/28 03:29:17;;;;;;;5.35;4.80;;;;;;;30.95;67.93;100986.16;5094824;27;69138;-34
2022/11/28 03:32:03;;;;;;;5.05;4.03;;;;;;;30.51;67.49;100895.81;5067571;27;66105;-34
2022/11/28 03:34:38;;;;;;;5.40;4.07;;;;;;;31.13;67.50;100988.13;5084935;27;69904;-34
2022/11/28 03:37:23;;;;;;;9.07;4.03;;;;;;;30.54;67.24;100870.19;5080959;27;65165;-33
2022/11/28 03:39:59;;;;;;;9.13;4.55;;;;;;;31.01;67.60;100941.97;5086203;27;69914;-32
2022/11/28 03:42:36;;;;;;;5.35;4.40;;;;;;;31.10;67.04;100945.22;5080931;27;66460;-34
2022/11/28 03:45:24;;;;;;;4.70;4.30;;;;;;;31.04;67.35;100938.00;5080175;27;69754;-33
2022/11/28 03:48:13;;;;;;;7.70;4.18;;;;;;;30.28;67.15;100797.06;5090669;27;65728;-36
2022/11/28 03:50:55;;;;;;;5.80;4.22;;;;;;;30.79;66.92;100870.22;5082618;27;70202;-35
2022/11/28 03:53:35;;;;;;;6.93;3.92;;;;;;;30.79;67.02;100862.09;5078943;27;65895;-34
2022/11/28 03:56:24;;;;;;;9.98;4.68;;;;;;;31.21;67.03;100928.25;5083150;27;69860;-35
2022/11/28 03:59:14;;;;;;;6.70;4.80;;;;;;;31.05;67.08;100916.06;5081274;27;65568;-35
2022/11/28 04:02:07;;;;;;;6.88;4.57;;;;;;;31.20;67.01;100928.47;5083877;27;69120;-35
2022/11/28 04:04:52;;;;;;;5.45;4.20;;;;;;;31.13;66.97;100929.34;5084774;27;65387;-35
2022/11/28 04:07:41;;;;;;;5.85;4.80;;;;;;;31.26;67.40;100917.59;5079952;27;69685;-35
2022/11/28 04:10:27;;;;;;;5.55;4.38;;;;;;;31.22;67.02;100920.94;5087783;27;66522;-35
2022/11/28 04:13:13;;;;;;;7.05;4.15;;;;;;;31.24;67.23;100918.84;5078104;27;69973;-36
2022/11/28 04:16:04;;;;;;;6.38;4.30;;;;;;;31.19;67.00;100905.13;5082165;27;65395;-35
2022/11/28 04:18:59;;;;;;;5.32;4.63;;;;;;;31.10;66.89;100886.44;5081348;27;69828;-34
2022/11/28 04:21:39;;;;;;;4.30;3.78;;;;;;;31.26;66.93;100892.34;5084096;27;65684;-34
2022/11/28 04:24:46;;;;;;;4.47;4.07;;;;;;;30.99;66.81;100830.28;5075729;27;68956;-37
2022/11/28 04:27:27;;;;;;;4.30;3.90;;;;;;;31.32;66.89;100883.34;5052117;27;65329;-37
2022/11/28 04:30:02;;;;;;;4.50;4.10;;;;;;;30.44;66.87;100729.91;5081425;27;70522;-34
2022/11/28 04:32:38;;;;;;;4.05;3.75;;;;;;;31.36;66.90;100868.31;5082450;27;65333;-36
2022/11/28 04:35:16;;;;;;;4.93;4.50;;;;;;;30.87;66.74;100784.13;5084034;27;69591;-34
2022/11/28 04:37:48;;;;;;;4.75;4.18;;;;;;;31.33;67.15;100857.88;5081919;27;65734;-34
2022/11/28 04:40:22;;;;;;;4.35;3.95;;;;;;;31.36;66.91;100849.34;5083283;27;70149;-36
2022/11/28 04:43:10;;;;;;;5.82;4.65;;;;;;;31.41;66.92;100860.34;5090828;27;66702;-35
2022/11/28 04:45:50;;;;;;;4.82;4.32;;;;;;;31.39;66.89;100847.00;5084435;27;71038;-35
2022/11/28 04:48:22;;;;;;;6.22;4.22;;;;;;;31.42;67.01;100850.31;5090352;27;65867;-34
2022/11/28 04:51:15;;;;;;;4.57;4.18;;;;;;;31.35;66.52;100831.41;5088704;27;69325;-36
2022/11/28 04:54:01;;;;;;;6.05;4.25;;;;;;;31.45;66.73;100841.72;5083433;27;65446;-35
2022/11/28 04:56:52;;;;;;;4.25;3.95;;;;;;;31.37;66.49;100821.16;5085925;27;69840;-35
2022/11/28 04:59:26;;;;;;;5.35;4.22;;;;;;;31.50;66.67;100831.88;5097186;27;65538;-37
2022/11/28 05:02:02;;;;;;;4.63;3.83;;;;;;;31.43;66.37;100814.88;5091107;27;69834;-37
2022/11/28 05:04:37;;;;;;;4.38;3.65;;;;;;;31.44;66.47;100811.09;5085142;27;66144;-34
2022/11/28 05:07:10;;;;;;;4.60;3.58;;;;;;;31.54;66.67;100827.66;5080190;27;69934;-34
2022/11/28 05:09:41;;;;;;;3.90;3.60;;;;;;;31.48;66.55;100812.31;5089904;27;66214;-35
2022/11/28 05:12:13;;;;;;;4.32;4.00;;;;;;;31.55;66.59;100818.47;5085267;27;70072;-34
2022/11/28 05:14:45;;;;;;;4.93;3.72;;;;;;;31.51;66.36;100802.88;5082177;27;66188;-35
2022/11/28 05:17:16;;;;;;;6.30;3.90;;;;;;;31.57;66.62;100800.09;5088189;27;69471;-35
2022/11/28 05:19:48;;;;;;;4.40;4.00;;;;;;;31.47;66.17;100778.09;5085104;27;66177;-34
2022/11/28 05:22:19;;;;;;;4.13;3.70;;;;;;;31.59;66.43;100786.28;5088061;27;70092;-34
2022/11/28 05:24:51;;;;;;;3.90;3.60;;;;;;;31.60;66.42;100783.38;5086776;27;65118;-34
2022/11/28 05:27:23;;;;;;;3.88;3.58;;;;;;;31.59;66.36;100784.44;5081986;27;69293;-34
2022/11/28 05:29:54;;;;;;;3.67;3.38;;;;;;;31.65;65.97;100784.56;5087300;27;66018;-34
2022/11/28 05:32:28;;;;;;;3.88;3.47;;;;;;;31.68;66.08;100781.38;5095626;27;69923;-36
2022/11/28 05:34:59;;;;;;;3.67;3.47;;;;;;;31.71;65.93;100780.97;5091823;27;65874;-35
2022/11/28 05:37:31;;;;;;;5.95;3.60;;;;;;;31.59;66.03;100760.03;5082188;27;69975;-34
2022/11/28 05:40:03;;;;;;;3.42;3.13;;;;;;;31.74;66.18;100777.78;5088081;27;65670;-35
2022/11/28 05:42:35;;;;;;;3.38;3.08;;;;;;;31.32;65.84;100704.47;5082013;27;70016;-34
2022/11/28 05:45:08;;;;;;;3.90;3.50;;;;;;;31.80;66.04;100766.00;5082600;27;66241;-36
2022/11/28 05:47:38;;;;;;;;;;;;;;;31.49;66.21;100765.16;5081374;27;69014;-34
2022/11/28 05:50:10;;;;;;;3.35;3.05;;;;;;;31.72;65.85;100753.59;5083525;27;65798;-34
2022/11/28 05:52:41;;;;;;;3.47;3.17;;;;;;;31.82;65.64;100763.91;5086312;27;70016;-33
2022/11/28 05:55:13;;;;;;;3.72;3.42;;;;;;;31.83;65.82;100760.94;5086811;27;66022;-34
2022/11/28 05:57:44;;;;;;;3.60;3.30;;;;;;;31.82;65.83;100742.22;5083480;27;70496;-34
2022/11/28 06:00:16;;;;;;;3.58;2.95;;;;;;;31.89;65.78;100742.09;5085318;27;66273;-35
2022/11/28 06:02:47;;;;;;;3.92;3.03;;;;;;;31.89;65.36;100736.69;5086470;27;70343;-33
2022/11/28 06:05:18;;;;;;;12.68;3.78;;;;;;;31.91;65.63;100740.84;5088839;27;65507;-35
2022/11/28 06:08:13;;;;;;;3.45;2.70;;;;;;;31.94;65.18;100734.13;5089992;27;69108;-34
2022/11/28 06:10:45;;;;;;;3.38;2.97;;;;;;;31.95;65.56;100733.06;5080510;27;65324;-33
2022/11/28 06:13:16;;;;;;;3.20;2.90;;;;;;;31.92;65.50;100726.22;5090666;27;70070;-34
2022/11/28 06:15:47;;;;;;;3.10;2.88;;;;;;;31.99;65.59;100732.38;5082785;27;66317;-34
2022/11/28 06:18:19;;;;;;;;;;;;;;;31.67;65.90;100726.31;5085504;27;70180;-33
2022/11/28 06:20:50;;;;;;;3.38;2.63;;;;;;;31.98;65.28;100719.88;5087611;27;66805;-34
2022/11/28 06:23:21;;;;;;;3.35;2.83;;;;;;;31.96;65.42;100705.72;5082646;27;70132;-34
2022/11/28 06:25:52;;;;;;;4.15;3.00;;;;;;;32.05;65.10;100715.16;5088462;27;66164;-34
2022/11/28 06:28:24;;;;;;;3.47;2.88;;;;;;;32.07;65.13;100719.53;5085819;27;69321;-37
2022/11/28 06:30:55;;;;;;;2.90;2.63;;;;;;;32.09;65.10;100703.84;5081860;27;65348;-34
2022/11/28 06:33:27;;;;;;;3.22;3.00;;;;;;;32.04;65.01;100691.81;5081636;27;69138;-33
2022/11/28 06:36:04;;;;;;;3.70;2.70;;;;;;;32.13;64.70;100699.63;5082923;27;65924;-35
2022/11/28 06:38:36;;;;;;;2.90;2.65;;;;;;;31.80;64.98;100627.69;5088822;27;69146;-34
2022/11/28 06:41:13;;;;;;;6.68;3.17;;;;;;;32.20;64.75;100689.47;5087959;27;66026;-34
2022/11/28 06:43:45;;;;;;;3.28;2.85;;;;;;;32.23;64.91;100676.28;5083346;27;70381;-33
2022/11/28 06:46:21;;;;;;;4.00;2.80;;;;;;;32.24;64.40;100691.50;5082700;27;65282;-34
2022/11/28 06:48:53;;;;;;;2.70;2.50;;;;;;;32.09;64.72;100655.00;5082822;27;69500;-33
2022/11/28 06:51:24;;;;;;;2.80;2.45;;;;;;;32.30;64.77;100684.31;5092181;27;65349;-35
2022/11/28 06:53:56;;;;;;;5.38;2.80;;;;;;;32.32;64.63;100690.34;5086891;27;69948;-36
2022/11/28 06:56:27;;;;;;;2.65;2.45;;;;;;;32.33;64.34;100685.72;5093686;27;65933;-33
2022/11/28 06:59:00;;;;;;;3.00;2.80;;;;;;;32.31;64.47;100672.38;5081876;27;69258;-33
2022/11/28 07:01:33;;;;;;;2.80;2.50;;;;;;;32.41;64.49;100680.78;5081896;27;66903;-33
2022/11/28 07:04:04;;;;;;;3.30;2.70;;;;;;;32.44;64.29;100674.88;5088168;27;70589;-34
2022/11/28 07:06:36;;;;;;;2.75;2.55;;;;;;;32.44;64.14;100664.00;5088975;27;65133;-36
2022/11/28 07:09:07;;;;;;;5.00;2.10;;;;;;;32.49;63.84;100666.06;5081167;27;68782;-35
2022/11/28 07:11:41;;;;;;;2.63;2.42;;;;;;;32.08;63.65;100588.25;5085306;27;66309;-33
2022/11/28 07:14:12;;;;;;;2.72;2.50;;;;;;;32.53;63.58;100644.69;5087235;27;69609;-33
2022/11/28 07:16:44;;;;;;;;;;;;;;;32.31;64.44;100645.22;5084272;27;65360;-34
2022/11/28 07:19:21;;;;;;;3.53;2.22;;;;;;;32.59;64.18;100643.72;5091122;27;70143;-35
2022/11/28 07:21:52;;;;;;;3.85;2.42;;;;;;;32.49;63.84;100618.00;5081128;27;66443;-36
2022/11/28 07:24:24;;;;;;;3.45;2.90;;;;;;;32.67;63.84;100637.94;5085613;27;69043;-35
2022/11/28 07:26:55;;;;;;;4.20;2.55;;;;;;;32.68;63.66;100639.56;5081148;27;65217;-33
2022/11/28 07:29:34;;;;;;;2.80;2.60;;;;;;;32.59;63.54;100622.00;5083361;27;69595;-35
2022/11/28 07:32:07;;;;;;;2.50;2.30;;;;;;;31.91;63.61;100513.00;5087844;27;66571;-35
2022/11/28 07:34:40;;;;;;;2.90;2.10;;;;;;;32.81;63.52;100641.22;5085681;27;70600;-34
2022/11/28 07:37:16;;;;;;;3.90;2.40;;;;;;;32.79;63.36;100638.75;5080941;27;65337;-34
2022/11/28 07:39:47;;;;;;;4.68;2.45;;;;;;;32.84;63.42;100641.53;5085021;27;69269;-34
2022/11/28 07:42:19;;;;;;;5.97;2.35;;;;;;;32.88;63.29;100642.75;5083020;27;65861;-35
2022/11/28 07:45:05;;;;;;;3.45;2.30;;;;;;;32.92;63.13;100638.47;5090419;27;69948;-34
2022/11/28 07:47:37;;;;;;;2.83;2.42;;;;;;;32.96;63.11;100632.53;5080014;27;65659;-34
2022/11/28 07:50:09;;;;;;;3.42;2.53;;;;;;;32.97;63.28;100623.34;5083989;27;70037;-36
2022/11/28 07:52:41;;;;;;;6.68;2.50;;;;;;;33.00;62.82;100618.28;5081226;27;66706;-34
2022/11/28 07:55:12;;;;;;;6.63;2.17;;;;;;;33.06;63.13;100619.19;5083220;27;69186;-36
2022/11/28 07:57:44;;;;;;;2.88;2.28;;;;;;;33.03;63.01;100616.97;5082551;27;65193;-35
2022/11/28 08:00:16;;;;;;;6.55;1.98;;;;;;;33.13;62.61;100628.06;5090067;27;68268;-35
2022/11/28 08:02:47;;;;;;;4.03;2.53;;;;;;;33.17;62.98;100629.22;5083655;27;65472;-37
2022/11/28 08:05:19;;;;;;;2.90;2.45;;;;;;;33.09;62.66;100616.81;5083917;27;69434;-36
2022/11/28 08:07:51;;;;;;;2.88;2.67;;;;;;;33.17;62.73;100610.19;5080796;27;65814;-36
2022/11/28 08:10:22;;;;;;;1.95;1.83;;;;;;;33.27;62.69;100621.25;5086302;27;69308;-33
2022/11/28 08:12:54;;;;;;;3.28;2.97;;;;;;;33.31;62.63;100621.59;5089422;27;65699;-34
2022/11/28 08:15:29;;;;;;;4.40;2.47;;;;;;;33.31;62.61;100619.69;5079327;27;70108;-35
2022/11/28 08:18:01;;;;;;;2.72;2.40;;;;;;;33.34;62.52;100619.19;5087943;27;66801;-37
2022/11/28 08:20:32;;;;;;;3.92;2.47;;;;;;;33.37;62.63;100618.72;5085245;27;69180;-34
2022/11/28 08:23:04;;;;;;;6.85;2.08;;;;;;;33.32;62.49;100610.47;5092765;27;66572;-34
2022/11/28 08:25:36;;;;;;;5.43;2.15;;;;;;;33.35;62.10;100626.31;5084993;27;69319;-35
2022/11/28 08:28:07;;;;;;;2.42;2.20;;;;;;;33.45;62.14;100627.56;5085433;27;65693;-35
2022/11/28 08:30:38;;;;;;;2.40;2.08;;;;;;;33.38;62.18;100608.69;5082972;27;70679;-33
2022/11/28 08:33:10;;;;;;;2.72;2.42;;;;;;;33.50;62.19;100622.22;5086588;27;66094;-34
2022/11/28 08:35:41;;;;;;;3.40;2.55;;;;;;;33.40;62.05;100605.72;5095905;27;69258;-33
2022/11/28 08:38:13;;;;;;;2.92;1.80;;;;;;;33.57;61.84;100618.31;5089393;27;66602;-34
2022/11/28 08:40:44;;;;;;;2.17;2.00;;;;;;;33.61;61.81;100618.63;5090745;27;69789;-34
2022/11/28 08:43:15;;;;;;;2.55;2.35;;;;;;;33.65;61.92;100627.13;5086582;27;66028;-34
2022/11/28 08:45:50;;;;;;;6.88;2.65;;;;;;;33.63;61.72;100611.06;5085896;27;44095;-33
2022/11/28 08:48:22;;;;;;;2.65;2.13;;;;;;;33.63;61.89;100612.94;5091408;27;65127;-35
2022/11/28 08:50:53;;;;;;;3.47;2.20;;;;;;;33.72;61.69;100623.19;5086121;27;70337;-34
2022/11/28 08:53:25;;;;;;;2.97;2.03;;;;;;;33.75;61.72;100621.88;5086984;27;66150;-34
2022/11/28 08:55:57;;;;;;;4.28;2.30;;;;;;;33.78;61.26;100621.38;5089514;27;69831;-35
2022/11/28 08:58:28;;;;;;;4.13;2.53;;;;;;;33.75;61.28;100614.53;5082778;27;65361;-34
2022/11/28 09:01:00;;;;;;;3.70;1.80;;;;;;;33.80;61.42;100611.91;5092651;27;69374;-34
2022/11/28 09:03:32;;;;;;;3.28;2.58;;;;;;;33.72;61.44;100598.69;5094678;27;65766;-34
2022/11/28 09:06:03;;;;;;;7.68;2.33;;;;;;;33.81;61.21;100610.00;5087488;27;69218;-33
2022/11/28 09:08:35;;;;;;;3.42;2.30;;;;;;;33.76;61.27;100610.72;5082910;27;66017;-36
2022/11/28 09:11:08;;;;;;;4.70;2.50;;;;;;;33.81;61.25;100612.72;5086141;27;70178;-35
2022/11/28 09:13:40;;;;;;;5.30;2.25;;;;;;;33.87;61.31;100619.06;5086235;27;66393;-34
2022/11/28 09:16:13;;;;;;;4.28;2.38;;;;;;;33.87;61.02;100625.31;5085300;27;70697;-34
2022/11/28 09:18:45;;;;;;;5.72;2.55;;;;;;;33.86;60.78;100625.59;5089961;27;65351;-34
2022/11/28 09:21:16;;;;;;;2.60;2.20;;;;;;;33.90;60.93;100648.50;5084795;27;69832;-33
2022/11/28 09:23:48;;;;;;;2.70;2.50;;;;;;;33.90;61.16;100653.94;5090094;27;66345;-33
2022/11/28 09:26:23;;;;;;;2.53;2.25;;;;;;;33.73;60.90;100635.69;5082587;27;69435;-34
2022/11/28 09:28:55;;;;;;;5.18;2.47;;;;;;;33.93;60.63;100664.31;5084604;27;66605;-34
2022/11/28 09:31:26;;;;;;;3.00;1.95;;;;;;;33.90;60.83;100656.66;5089946;27;70309;-35
2022/11/28 09:33:58;;;;;;;4.40;2.42;;;;;;;33.91;61.04;100658.34;5071429;27;65460;-35
2022/11/28 09:36:31;;;;;;;2.63;2.35;;;;;;;33.78;60.93;100637.69;5084096;27;69093;-36
2022/11/28 09:39:02;;;;;;;3.03;2.70;;;;;;;33.90;60.98;100654.75;5085772;27;66603;-35
2022/11/28 09:41:50;;;;;;;4.43;2.30;;;;;;;33.87;60.74;100662.59;5083951;27;69790;-34
2022/11/28 09:44:30;;;;;;;2.75;2.50;;;;;;;33.91;60.82;100666.50;5080965;27;66616;-34
2022/11/28 09:47:06;;;;;;;2.50;2.30;;;;;;;33.50;60.55;100603.19;5081181;27;70502;-34
2022/11/28 09:49:57;;;;;;;3.25;2.47;;;;;;;33.74;60.91;100650.97;5082177;27;65821;-34
2022/11/28 09:53:09;;;;;;;5.80;2.35;;;;;;;33.76;60.95;100670.56;5086265;27;70296;-34
2022/11/28 09:55:49;;;;;;;3.17;2.08;;;;;;;33.85;60.70;100671.03;5088828;27;66741;-36
2022/11/28 09:58:39;;;;;;;3.75;2.70;;;;;;;33.76;61.22;100665.13;5089466;27;70583;-35
2022/11/28 10:01:10;;;;;;;4.45;2.20;;;;;;;33.82;61.12;100668.75;5087645;27;66853;-34
2022/11/28 10:03:54;;;;;;;2.63;2.42;;;;;;;33.75;61.15;100666.22;5081102;27;70033;-35
2022/11/28 10:07:01;;;;;;;8.48;2.40;;;;;;;33.71;61.10;100666.94;5083172;27;66789;-35
2022/11/28 10:10:07;;;;;;;5.88;2.20;;;;;;;33.64;61.56;100682.59;5085359;27;69811;-36
2022/11/28 10:12:39;;;;;;;3.95;2.45;;;;;;;33.74;61.22;100694.50;5043752;27;66166;-34
2022/11/28 10:15:29;;;;;;;6.18;2.20;;;;;;;33.71;61.05;100686.81;5078419;27;69975;-35
2022/11/28 10:18:15;;;;;;;10.65;3.13;;;;;;;33.62;61.47;100691.00;5085049;27;66721;-31
2022/11/28 10:20:51;;;;;;;4.72;2.90;;;;;;;33.33;62.67;100696.41;5098194;27;70202;-33
2022/11/28 10:23:33;;;;;;;8.93;3.35;;;;;;;33.06;63.65;100698.84;5083843;27;65234;-35
2022/11/28 10:26:22;;;;;;;3.40;3.10;;;;;;;32.48;64.16;100638.09;5082072;27;69953;-33
2022/11/28 10:28:57;;;;;;;5.13;3.30;;;;;;;32.80;64.47;100724.59;5088123;27;66602;-36
2022/11/28 10:31:45;;;;;;;6.53;3.42;;;;;;;32.58;65.46;100704.53;5091936;27;70035;-33
2022/11/28 10:34:25;;;;;;;6.72;3.30;;;;;;;32.61;65.69;100728.50;5089610;27;66296;-35
2022/11/28 10:37:21;;;;;;;11.63;3.35;;;;;;;32.47;66.70;100723.28;5084470;27;69496;-33
2022/11/28 10:39:54;;;;;;;4.10;3.65;;;;;;;32.47;66.66;100720.56;5079313;27;66231;-38
2022/11/28 10:42:49;;;;;;;10.27;4.15;;;;;;;32.37;67.17;100723.00;5089430;27;70661;-34
2022/11/28 10:45:51;;;;;;;7.57;3.78;;;;;;;32.33;67.46;100716.41;5086091;27;65698;-34
2022/11/28 10:48:41;;;;;;;8.70;3.83;;;;;;;32.28;67.81;100721.69;5090767;27;69781;-35
2022/11/28 10:51:16;;;;;;;6.95;3.92;;;;;;;32.32;67.88;100728.34;5085811;27;65384;-37
2022/11/28 10:54:02;;;;;;;5.80;4.28;;;;;;;32.29;68.32;100731.53;5090565;27;69979;-36
2022/11/28 10:56:57;;;;;;;4.90;4.38;;;;;;;31.75;68.30;100643.81;5089786;27;66041;-34
2022/11/28 10:59:52;;;;;;;4.78;4.28;;;;;;;31.65;68.64;100655.25;5084589;27;69438;-32
2022/11/28 11:02:57;;;;;;;6.82;4.65;;;;;;;32.04;69.83;100729.81;5083096;27;66651;-34
2022/11/28 11:05:34;;;;;;;5.20;4.03;;;;;;;31.70;69.36;100662.69;5034783;27;70627;-34
2022/11/28 11:08:18;;;;;;;5.80;4.32;;;;;;;32.18;69.69;100745.88;5081708;27;66607;-34
2022/11/28 11:11:33;;;;;;;5.22;3.45;;;;;;;32.05;70.13;100753.16;5082969;27;69462;-35
2022/11/28 11:14:08;;;;;;;10.88;4.10;;;;;;;32.13;69.81;100753.91;5066705;27;66191;-36
2022/11/28 11:16:59;;;;;;;3.63;3.40;;;;;;;31.64;69.51;100686.13;5081754;27;69289;-33
2022/11/28 11:19:34;;;;;;;4.68;3.88;;;;;;;31.91;69.67;100730.00;5083087;27;65658;-35
2022/11/28 11:22:11;;;;;;;4.38;3.80;;;;;;;32.07;70.00;100762.94;5082798;27;70771;-33
2022/11/28 11:24:42;;;;;;;5.97;3.50;;;;;;;32.06;70.27;100764.84;5080856;27;66617;-34
2022/11/28 11:27:22;;;;;;;4.80;4.32;;;;;;;32.02;70.45;100775.31;5082748;27;69288;-35
2022/11/28 11:29:54;;;;;;;6.20;4.18;;;;;;;32.02;70.54;100775.31;5069201;27;66184;-34
2022/11/28 11:32:29;;;;;;;5.18;4.75;;;;;;;31.50;70.52;100699.03;5082247;27;70369;-34
2022/11/28 11:35:01;;;;;;;5.20;4.80;;;;;;;31.54;71.00;100710.25;5083956;27;65955;-35
2022/11/28 11:37:37;;;;;;;4.85;4.20;;;;;;;31.50;70.49;100704.44;5082813;27;70432;-37
2022/11/28 11:40:30;;;;;;;9.15;5.00;;;;;;;31.90;71.09;100798.84;5086195;27;64732;-34
2022/11/28 11:43:01;;;;;;;6.43;5.07;;;;;;;31.93;71.10;100801.13;5083781;27;69632;-35
2022/11/28 11:45:34;;;;;;;13.98;5.85;;;;;;;31.94;70.87;100816.34;5086613;27;66140;-35
2022/11/28 11:48:11;;;;;;;5.20;4.72;;;;;;;31.91;70.99;100805.97;5088902;27;70211;-33
2022/11/28 11:50:54;;;;;;;7.10;6.07;;;;;;;31.85;71.05;100796.00;5087329;27;65214;-36
2022/11/28 11:53:25;;;;;;;5.85;5.35;;;;;;;31.87;70.60;100815.56;5088944;27;68429;-34
2022/11/28 11:56:00;;;;;;;6.10;5.43;;;;;;;31.89;71.68;100818.88;5085740;27;65601;-36
2022/11/28 11:58:51;;;;;;;12.82;5.28;;;;;;;31.79;71.84;100818.63;5084600;27;69596;-33
2022/11/28 12:01:23;;;;;;;5.53;4.85;;;;;;;31.94;71.76;100832.63;5084357;27;65490;-37
2022/11/28 12:04:06;;;;;;;5.93;4.80;;;;;;;31.29;71.84;100729.31;5090932;27;69999;-33
2022/11/28 12:07:03;;;;;;;9.02;4.10;;;;;;;31.69;71.70;100796.63;5080213;27;65348;-33
2022/11/28 12:09:43;;;;;;;5.07;4.15;;;;;;;31.42;72.00;100758.97;5085972;27;70260;-32
2022/11/28 12:12:28;;;;;;;9.25;4.90;;;;;;;31.92;71.85;100845.56;5083323;27;66323;-34
2022/11/28 12:14:59;;;;;;;7.10;4.32;;;;;;;31.87;71.97;100845.41;5082608;27;69948;-33